createdAt,value
2022-12-13T00:01:23.463Z,27.63
2022-12-13T00:03:53.159Z,29.13
2022-12-13T00:06:19.829Z,27.30
2022-12-13T00:08:46.368Z,26.17
2022-12-13T00:11:14.522Z,27.63
2022-12-13T00:13:42.704Z,38.30
2022-12-13T00:16:17.184Z,32.22
2022-12-13T00:18:44.268Z,26.98
2022-12-13T00:21:16.200Z,23.05
2022-12-13T00:23:42.647Z,19.55
2022-12-13T00:26:18.154Z,15.52
2022-12-13T00:28:45.121Z,19.17
2022-12-13T00:31:51.498Z,23.13
2022-12-13T00:34:01.003Z,20.60
2022-12-13T00:36:28.135Z,19.70
2022-12-13T00:39:00.653Z,18.58
2022-12-13T00:41:32.846Z,17.00
2022-12-13T00:44:00.116Z,15.20
2022-12-13T00:46:29.997Z,15.68
2022-12-13T00:48:58.492Z,14.85
2022-12-13T00:51:28.713Z,15.15
2022-12-13T00:53:58.934Z,14.90
2022-12-13T00:56:29.240Z,15.80
2022-12-13T00:58:56.821Z,13.52
2022-12-13T01:01:26.721Z,13.82
2022-12-13T01:03:54.478Z,14.05
2022-12-13T01:06:45.084Z,13.75
2022-12-13T01:09:18.458Z,13.50
2022-12-13T01:11:45.775Z,13.70
2022-12-13T01:14:12.570Z,13.93
2022-12-13T01:16:39.372Z,13.93
2022-12-13T01:19:05.947Z,14.95
2022-12-13T01:21:32.509Z,13.80
2022-12-13T01:24:05.941Z,13.45
2022-12-13T01:26:33.508Z,13.80
2022-12-13T01:29:00.192Z,13.68
2022-12-13T01:31:26.878Z,13.27
2022-12-13T01:33:55.795Z,13.52
2022-12-13T01:36:27.633Z,14.45
2022-12-13T01:38:59.417Z,14.20
2022-12-13T01:41:27.673Z,13.95
2022-12-13T01:43:57.896Z,16.55
2022-12-13T01:46:24.498Z,23.88
2022-12-13T01:49:20.274Z,26.80
2022-12-13T01:51:52.076Z,30.65
2022-12-13T01:54:24.015Z,19.45
2022-12-13T01:57:00.784Z,16.65
2022-12-13T01:59:28.149Z,38.30
2022-12-13T02:01:54.651Z,28.40
2022-12-13T02:04:33.825Z,39.58
2022-12-13T02:07:03.117Z,41.28
2022-12-13T02:09:29.743Z,69.18
2022-12-13T02:11:59.077Z,48.58
2022-12-13T02:14:25.542Z,45.95
2022-12-13T02:17:15.915Z,45.45
2022-12-13T02:20:23.834Z,40.97
2022-12-13T02:23:02.093Z,19.40
2022-12-13T02:25:49.734Z,14.30
2022-12-13T02:28:57.606Z,12.38
2022-12-13T02:31:32.059Z,12.65
2022-12-13T02:34:21.374Z,13.32
2022-12-13T02:37:18.079Z,14.15
2022-12-13T02:39:52.366Z,13.80
2022-12-13T02:42:40.754Z,13.73
2022-12-13T02:45:20.501Z,12.20
2022-12-13T02:47:49.658Z,13.13
2022-12-13T02:50:20.310Z,12.45
2022-12-13T02:52:47.110Z,12.93
2022-12-13T02:55:16.822Z,12.88
2022-12-13T02:57:45.247Z,13.68
2022-12-13T03:00:22.633Z,12.80
2022-12-13T03:03:01.943Z,13.05
2022-12-13T03:05:59.487Z,12.25
2022-12-13T03:08:39.333Z,13.50
2022-12-13T03:11:07.993Z,13.60
2022-12-13T03:13:52.736Z,14.13
2022-12-13T03:16:29.067Z,14.07
2022-12-13T03:19:00.678Z,13.60
2022-12-13T03:21:28.237Z,13.77
2022-12-13T03:23:54.834Z,14.02
2022-12-13T03:26:25.343Z,14.15
2022-12-13T03:28:54.948Z,13.40
2022-12-13T03:31:21.630Z,14.35
2022-12-13T03:33:48.377Z,14.95
2022-12-13T03:36:16.276Z,14.15
2022-12-13T03:38:42.964Z,14.10
2022-12-13T03:41:12.817Z,14.35
2022-12-13T03:43:40.456Z,14.35
2022-12-13T03:46:07.958Z,13.73
2022-12-13T03:48:34.614Z,13.55
2022-12-13T03:51:01.585Z,13.95
2022-12-13T03:53:33.459Z,28.08
2022-12-13T03:56:05.734Z,45.20
2022-12-13T03:58:36.544Z,75.65
2022-12-13T04:01:09.029Z,53.47
2022-12-13T04:03:36.972Z,53.67
2022-12-13T04:06:04.293Z,52.03
2022-12-13T04:08:33.912Z,43.38
2022-12-13T04:11:20.558Z,26.52
2022-12-13T04:13:47.122Z,16.02
2022-12-13T04:16:16.183Z,18.00
2022-12-13T04:18:43.095Z,16.13
2022-12-13T04:21:09.835Z,14.60
2022-12-13T04:23:36.524Z,15.02
2022-12-13T04:26:03.210Z,15.90
2022-12-13T04:28:29.852Z,15.93
2022-12-13T04:30:56.438Z,16.05
2022-12-13T04:33:23.394Z,14.73
2022-12-13T04:35:50.731Z,15.45
2022-12-13T04:38:17.423Z,16.05
2022-12-13T04:40:43.986Z,16.17
2022-12-13T04:43:10.659Z,14.98
2022-12-13T04:45:37.760Z,15.88
2022-12-13T04:48:04.713Z,14.07
2022-12-13T04:50:31.261Z,14.95
2022-12-13T04:52:57.909Z,14.77
2022-12-13T04:55:24.437Z,14.68
2022-12-13T04:57:53.186Z,14.52
2022-12-13T05:00:22.078Z,15.75
2022-12-13T05:02:48.731Z,15.25
2022-12-13T05:05:15.643Z,14.82
2022-12-13T05:07:43.085Z,14.18
2022-12-13T05:10:11.090Z,14.82
2022-12-13T05:12:40.086Z,14.02
2022-12-13T05:15:07.411Z,16.13
2022-12-13T05:17:34.148Z,15.00
2022-12-13T05:20:03.251Z,15.60
2022-12-13T05:22:29.801Z,14.68
2022-12-13T05:24:56.462Z,14.88
2022-12-13T05:27:26.853Z,15.77
2022-12-13T05:30:03.699Z,15.23
2022-12-13T05:32:43.948Z,14.50
2022-12-13T05:35:23.496Z,15.57
2022-12-13T05:37:56.770Z,16.02
2022-12-13T05:40:24.442Z,16.67
2022-12-13T05:42:51.213Z,16.52
2022-12-13T05:45:19.047Z,15.95
2022-12-13T05:47:46.542Z,17.48
2022-12-13T05:50:15.061Z,17.30
2022-12-13T05:52:43.636Z,27.77
2022-12-13T05:55:11.109Z,25.77
2022-12-13T05:57:38.347Z,26.42
2022-12-13T06:00:06.896Z,24.83
2022-12-13T06:02:56.536Z,17.08
2022-12-13T06:05:27.330Z,15.25
2022-12-13T06:07:57.395Z,18.15
2022-12-13T06:10:24.742Z,17.70
2022-12-13T06:13:01.153Z,16.75
2022-12-13T06:15:28.101Z,18.85
2022-12-13T06:18:01.911Z,19.35
2022-12-13T06:20:28.587Z,18.52
2022-12-13T06:22:55.125Z,18.02
2022-12-13T06:25:30.844Z,22.92
2022-12-13T06:28:01.221Z,19.52
2022-12-13T06:30:29.991Z,17.48
2022-12-13T06:32:59.211Z,16.83
2022-12-13T06:35:28.547Z,16.83
2022-12-13T06:38:01.309Z,18.38
2022-12-13T06:40:33.700Z,25.27
2022-12-13T06:43:00.861Z,22.75
2022-12-13T06:45:27.406Z,19.77
2022-12-13T06:47:53.933Z,24.63
2022-12-13T06:50:20.465Z,19.45
2022-12-13T06:52:47.308Z,20.58
2022-12-13T06:55:14.312Z,22.00
2022-12-13T06:57:41.703Z,19.40
2022-12-13T07:00:09.782Z,18.27
2022-12-13T07:02:38.129Z,18.40
2022-12-13T07:05:05.235Z,18.48
2022-12-13T07:07:32.336Z,19.50
2022-12-13T07:09:58.920Z,18.23
2022-12-13T07:12:25.721Z,18.70
2022-12-13T07:14:52.314Z,18.00
2022-12-13T07:17:33.418Z,17.35
2022-12-13T07:20:01.191Z,18.63
2022-12-13T07:22:28.139Z,18.60
2022-12-13T07:24:56.906Z,18.08
2022-12-13T07:27:23.446Z,18.33
2022-12-13T07:29:49.993Z,18.33
2022-12-13T07:32:16.595Z,19.30
2022-12-13T07:34:43.489Z,18.48
2022-12-13T07:37:29.273Z,19.77
2022-12-13T07:40:02.699Z,19.30
2022-12-13T07:42:30.350Z,20.90
2022-12-13T07:44:56.881Z,23.17
2022-12-13T07:47:23.574Z,20.67
2022-12-13T07:49:52.295Z,21.85
2022-12-13T07:52:18.858Z,23.52
2022-12-13T07:54:45.394Z,23.70
2022-12-13T07:57:11.928Z,22.38
2022-12-13T07:59:38.464Z,22.15
2022-12-13T08:02:06.743Z,22.38
2022-12-13T08:04:37.873Z,22.30
2022-12-13T08:07:09.038Z,24.08
2022-12-13T08:09:36.050Z,25.35
2022-12-13T08:12:02.768Z,23.90
2022-12-13T08:14:32.064Z,23.60
2022-12-13T08:16:58.688Z,22.30
2022-12-13T08:19:25.237Z,21.98
2022-12-13T08:21:55.543Z,22.13
2022-12-13T08:24:28.322Z,21.35
2022-12-13T08:27:09.905Z,21.95
2022-12-13T08:29:36.519Z,21.92
2022-12-13T08:32:08.074Z,22.38
2022-12-13T08:34:34.812Z,23.15
2022-12-13T08:37:03.574Z,20.70
2022-12-13T08:39:36.801Z,21.75
2022-12-13T08:42:15.989Z,21.33
2022-12-13T08:44:50.053Z,21.88
2022-12-13T08:47:22.964Z,21.88
2022-12-13T08:50:02.353Z,22.50
2022-12-13T08:52:30.288Z,22.35
2022-12-13T08:54:56.792Z,23.40
2022-12-13T08:57:23.323Z,22.67
2022-12-13T08:59:49.886Z,23.27
2022-12-13T09:02:18.803Z,21.92
2022-12-13T09:04:45.535Z,24.20
2022-12-13T09:07:14.580Z,23.20
2022-12-13T09:09:43.574Z,22.77
2022-12-13T09:12:10.781Z,22.73
2022-12-13T09:15:00.946Z,22.77
2022-12-13T09:17:36.838Z,22.45
2022-12-13T09:20:10.268Z,22.15
2022-12-13T09:22:51.354Z,22.13
2022-12-13T09:25:24.185Z,23.08
2022-12-13T09:30:17.403Z,21.45
2022-12-13T09:32:49.680Z,20.48
2022-12-13T09:35:16.184Z,20.58
2022-12-13T09:37:46.052Z,21.40
2022-12-13T09:40:26.666Z,20.58
2022-12-13T09:43:12.616Z,21.50
2022-12-13T09:45:45.718Z,20.23
2022-12-13T09:48:22.765Z,20.08
2022-12-13T09:50:57.948Z,20.45
2022-12-13T09:53:37.604Z,19.70
2022-12-13T09:56:10.490Z,19.30
2022-12-13T09:58:38.147Z,18.83
2022-12-13T10:01:05.472Z,19.15
2022-12-13T10:03:32.031Z,19.73
2022-12-13T10:06:13.841Z,20.15
2022-12-13T10:08:57.879Z,19.88
2022-12-13T10:11:31.935Z,20.73
2022-12-13T10:14:20.096Z,20.55
2022-12-13T10:16:51.061Z,19.13
2022-12-13T10:19:34.868Z,21.38
2022-12-13T10:22:04.526Z,21.85
2022-12-13T10:25:03.631Z,20.90
2022-12-13T10:27:34.851Z,19.77
2022-12-13T10:30:15.459Z,19.45
2022-12-13T10:32:52.874Z,19.25
2022-12-13T10:35:32.610Z,19.73
2022-12-13T10:38:08.337Z,20.23
2022-12-13T10:40:48.332Z,18.90
2022-12-13T10:43:20.417Z,19.45
2022-12-13T10:45:59.168Z,18.88
2022-12-13T10:48:38.456Z,19.23
2022-12-13T10:51:10.888Z,19.75
2022-12-13T10:53:47.389Z,18.92
2022-12-13T10:56:14.760Z,25.90
2022-12-13T10:59:13.405Z,28.58
2022-12-13T11:01:43.672Z,23.08
2022-12-13T11:04:33.752Z,20.73
2022-12-13T11:07:22.004Z,20.45
2022-12-13T11:09:52.449Z,18.90
2022-12-13T11:12:25.732Z,26.77
2022-12-13T11:15:04.466Z,21.98
2022-12-13T11:17:47.865Z,20.30
2022-12-13T11:20:54.799Z,19.10
2022-12-13T11:23:33.201Z,18.08
2022-12-13T11:26:06.467Z,18.25
2022-12-13T11:28:57.640Z,18.17
2022-12-13T11:31:30.380Z,17.27
2022-12-13T11:34:34.430Z,17.90
2022-12-13T11:37:13.094Z,17.00
2022-12-13T11:40:01.184Z,18.00
2022-12-13T11:42:35.029Z,17.65
2022-12-13T11:45:22.887Z,17.35
2022-12-13T11:47:58.320Z,16.10
2022-12-13T11:50:37.045Z,15.13
2022-12-13T11:53:25.097Z,16.52
2022-12-13T11:56:10.174Z,14.27
2022-12-13T11:59:02.440Z,15.40
2022-12-13T12:01:56.983Z,16.20
2022-12-13T12:04:39.583Z,15.07
2022-12-13T12:07:36.725Z,15.02
2022-12-13T12:10:21.379Z,17.85
2022-12-13T12:12:55.544Z,13.55
2022-12-13T12:15:27.601Z,12.50
2022-12-13T12:17:55.900Z,13.90
2022-12-13T12:20:33.893Z,13.52
2022-12-13T12:23:24.927Z,13.82
2022-12-13T12:26:06.680Z,11.63
2022-12-13T12:28:45.289Z,12.38
2022-12-13T12:31:23.975Z,10.15
2022-12-13T12:34:16.795Z,11.48
2022-12-13T12:37:17.803Z,11.15
2022-12-13T12:39:50.702Z,10.65
2022-12-13T12:42:17.124Z,11.02
2022-12-13T12:44:50.448Z,10.88
2022-12-13T12:48:48.992Z,10.45
2022-12-13T12:50:56.278Z,9.65
2022-12-13T12:53:32.099Z,8.90
2022-12-13T12:56:25.329Z,9.48
2022-12-13T12:59:12.501Z,10.48
2022-12-13T13:01:49.164Z,11.40
2022-12-13T13:04:24.333Z,10.30
2022-12-13T13:07:23.391Z,9.85
2022-12-13T13:09:55.098Z,9.18
2022-12-13T13:12:29.190Z,9.57
2022-12-13T13:14:57.240Z,8.95
2022-12-13T13:17:23.668Z,9.77
2022-12-13T13:20:07.829Z,9.32
2022-12-13T13:22:44.332Z,13.32
2022-12-13T13:25:31.765Z,14.98
2022-12-13T13:28:05.520Z,9.38
2022-12-13T13:30:32.907Z,27.33
2022-12-13T13:33:02.186Z,14.15
2022-12-13T13:35:28.795Z,11.30
2022-12-13T13:37:55.754Z,11.95
2022-12-13T13:40:30.989Z,12.27
2022-12-13T13:43:10.116Z,10.38
2022-12-13T13:45:54.545Z,9.10
2022-12-13T13:48:21.002Z,9.68
2022-12-13T13:51:10.524Z,8.20
2022-12-13T13:54:14.609Z,9.10
2022-12-13T13:57:05.992Z,9.70
2022-12-13T13:59:58.986Z,8.73
2022-12-13T14:03:09.043Z,9.63
2022-12-13T14:05:48.948Z,9.32
2022-12-13T14:08:32.567Z,9.70
2022-12-13T14:11:27.024Z,9.02
2022-12-13T14:14:21.635Z,10.13
2022-12-13T14:16:49.009Z,9.30
2022-12-13T14:19:37.924Z,10.57
2022-12-13T14:22:27.588Z,8.90
2022-12-13T14:24:54.010Z,8.90
2022-12-13T14:27:39.618Z,9.10
2022-12-13T14:30:27.053Z,8.85
2022-12-13T14:32:58.268Z,8.88
2022-12-13T14:35:30.504Z,9.25
2022-12-13T14:38:04.623Z,9.02
2022-12-13T14:40:47.249Z,8.70
2022-12-13T14:43:27.650Z,9.25
2022-12-13T14:46:03.928Z,9.15
2022-12-13T14:48:43.757Z,8.93
2022-12-13T14:51:46.933Z,8.93
2022-12-13T14:54:25.846Z,9.48
2022-12-13T14:57:04.887Z,8.90
2022-12-13T14:59:33.411Z,8.70
2022-12-13T15:02:05.210Z,9.35
2022-12-13T15:04:34.882Z,8.65
2022-12-13T15:07:13.577Z,8.63
2022-12-13T15:09:42.949Z,8.70
2022-12-13T15:12:25.495Z,8.23
2022-12-13T15:15:36.429Z,8.35
2022-12-13T15:18:24.763Z,8.82
2022-12-13T15:20:53.717Z,11.35
2022-12-13T15:23:29.813Z,11.13
2022-12-13T15:26:00.885Z,11.63
2022-12-13T15:28:31.611Z,10.32
2022-12-13T15:31:01.473Z,9.95
2022-12-13T15:33:35.227Z,8.95
2022-12-13T15:36:17.017Z,10.05
2022-12-13T15:39:01.023Z,10.93
2022-12-13T15:41:34.676Z,16.83
2022-12-13T15:44:06.007Z,22.75
2022-12-13T15:46:37.934Z,12.73
2022-12-13T15:49:06.568Z,11.00
2022-12-13T15:51:33.112Z,33.75
2022-12-13T15:54:23.402Z,12.50
2022-12-13T15:57:29.298Z,13.40
2022-12-13T16:00:29.243Z,15.27
2022-12-13T16:03:01.670Z,13.18
2022-12-13T16:05:38.471Z,16.40
2022-12-13T16:08:13.518Z,17.35
2022-12-13T16:10:47.329Z,19.10
2022-12-13T16:13:26.207Z,23.63
2022-12-13T16:16:03.826Z,18.80
2022-12-13T16:18:46.038Z,23.25
2022-12-13T16:21:12.639Z,30.75
2022-12-13T16:23:39.121Z,43.13
2022-12-13T16:26:08.956Z,23.55
2022-12-13T16:28:36.007Z,27.50
2022-12-13T16:31:14.057Z,19.95
2022-12-13T16:33:43.704Z,16.73
2022-12-13T16:36:13.013Z,13.07
2022-12-13T16:38:39.909Z,17.88
2022-12-13T16:41:08.961Z,21.27
2022-12-13T16:43:50.291Z,14.15
2022-12-13T16:47:12.024Z,14.63
2022-12-13T16:49:17.610Z,23.67
2022-12-13T16:51:48.268Z,20.05
2022-12-13T16:54:18.299Z,21.55
2022-12-13T16:56:45.039Z,17.40
2022-12-13T16:59:19.203Z,25.08
2022-12-13T17:01:46.636Z,22.42
2022-12-13T17:04:20.906Z,18.38
2022-12-13T17:06:48.809Z,18.27
2022-12-13T17:09:15.636Z,15.48
2022-12-13T17:11:44.536Z,15.05
2022-12-13T17:14:11.092Z,15.10
2022-12-13T17:16:37.793Z,13.13
2022-12-13T17:19:04.289Z,13.40
2022-12-13T17:21:30.827Z,13.02
2022-12-13T17:23:59.441Z,14.07
2022-12-13T17:26:27.527Z,14.30
2022-12-13T17:28:54.306Z,14.27
2022-12-13T17:31:21.203Z,14.70
2022-12-13T17:33:47.824Z,15.10
2022-12-13T17:36:18.094Z,20.30
2022-12-13T17:38:46.605Z,19.70
2022-12-13T17:41:16.905Z,14.82
2022-12-13T17:43:45.969Z,13.80
2022-12-13T17:46:15.295Z,13.93
2022-12-13T17:48:42.742Z,16.52
2022-12-13T17:51:10.879Z,16.40
2022-12-13T17:53:39.629Z,18.42
2022-12-13T17:56:12.361Z,22.08
2022-12-13T17:58:40.147Z,29.95
2022-12-13T18:01:19.176Z,21.88
2022-12-13T18:03:47.815Z,17.08
2022-12-13T18:06:15.172Z,15.07
2022-12-13T18:08:45.582Z,17.88
2022-12-13T18:14:05.214Z,16.30
2022-12-13T18:16:38.482Z,18.55
2022-12-13T18:19:10.175Z,16.25
2022-12-13T18:21:37.550Z,18.45
2022-12-13T18:24:05.645Z,15.68
2022-12-13T18:26:32.225Z,17.05
2022-12-13T18:28:58.838Z,17.67
2022-12-13T18:31:25.785Z,15.02
2022-12-13T18:33:54.155Z,13.95
2022-12-13T18:36:23.209Z,14.55
2022-12-13T18:38:52.032Z,14.02
2022-12-13T18:41:24.212Z,13.43
2022-12-13T18:44:05.215Z,14.68
2022-12-13T18:46:35.183Z,17.77
2022-12-13T18:49:02.360Z,16.73
2022-12-13T18:51:29.231Z,15.45
2022-12-13T18:53:56.310Z,14.32
2022-12-13T18:56:23.638Z,14.13
2022-12-13T18:58:51.193Z,14.00
2022-12-13T19:01:19.092Z,15.95
2022-12-13T19:03:47.885Z,17.85
2022-12-13T19:06:23.650Z,18.02
2022-12-13T19:08:52.972Z,19.15
2022-12-13T19:11:22.674Z,18.00
2022-12-13T19:13:49.301Z,22.92
2022-12-13T19:16:19.251Z,42.95
2022-12-13T19:18:46.056Z,41.53
2022-12-13T19:21:19.385Z,20.48
2022-12-13T19:26:24.157Z,14.18
2022-12-13T19:28:51.138Z,15.70
2022-12-13T19:31:17.710Z,15.95
2022-12-13T19:33:44.299Z,17.77
2022-12-13T19:36:11.470Z,17.00
2022-12-13T19:38:39.175Z,15.65
2022-12-13T19:41:10.699Z,15.93
2022-12-13T19:43:37.424Z,16.40
2022-12-13T19:46:04.119Z,16.13
2022-12-13T19:48:30.821Z,17.13
2022-12-13T19:51:01.916Z,21.05
2022-12-13T19:53:31.299Z,31.58
2022-12-13T19:55:58.566Z,22.02
2022-12-13T19:58:26.516Z,21.70
2022-12-13T20:01:02.977Z,17.85
2022-12-13T20:03:37.292Z,15.63
2022-12-13T20:06:05.213Z,19.27
2022-12-13T20:08:34.343Z,18.20
2022-12-13T20:11:03.832Z,17.02
2022-12-13T20:13:30.523Z,20.65
2022-12-13T20:15:57.816Z,18.88
2022-12-13T20:18:25.191Z,25.38
2022-12-13T20:21:16.122Z,21.00
2022-12-13T20:23:49.471Z,27.80
2022-12-13T20:26:20.146Z,33.28
2022-12-13T20:28:50.014Z,23.30
2022-12-13T20:31:19.378Z,25.17
2022-12-13T20:33:48.029Z,16.42
2022-12-13T20:36:24.814Z,16.75
2022-12-13T20:38:56.307Z,16.77
2022-12-13T20:41:25.412Z,18.40
2022-12-13T20:43:53.574Z,19.48
2022-12-13T20:46:20.404Z,18.25
2022-12-13T20:48:48.041Z,21.30
2022-12-13T20:51:20.337Z,18.90
2022-12-13T20:53:48.889Z,18.00
2022-12-13T20:56:24.625Z,23.27
2022-12-13T20:58:51.986Z,20.20
2022-12-13T21:01:30.360Z,22.15
2022-12-13T21:04:00.176Z,26.20
2022-12-13T21:06:28.447Z,28.25
2022-12-13T21:08:55.538Z,26.58
2022-12-13T21:11:24.517Z,18.25
2022-12-13T21:13:55.140Z,23.65
2022-12-13T21:16:23.023Z,19.98
2022-12-13T21:18:49.686Z,17.58
2022-12-13T21:21:16.226Z,16.33
2022-12-13T21:23:42.725Z,15.23
2022-12-13T21:26:11.727Z,15.23
2022-12-13T21:28:38.218Z,15.00
2022-12-13T21:31:09.600Z,16.17
2022-12-13T21:33:39.451Z,14.93
2022-12-13T21:36:14.511Z,15.77
2022-12-13T21:38:41.921Z,13.90
2022-12-13T21:41:11.644Z,14.30
2022-12-13T21:43:39.044Z,14.00
2022-12-13T21:46:15.490Z,14.07
2022-12-13T21:48:43.211Z,14.43
2022-12-13T21:51:13.050Z,13.32
2022-12-13T21:53:39.790Z,13.85
2022-12-13T21:56:26.863Z,14.10
2022-12-13T21:59:12.186Z,14.55
2022-12-13T22:02:07.151Z,15.02
2022-12-13T22:04:36.316Z,15.82
2022-12-13T22:07:05.356Z,14.70
2022-12-13T22:09:31.862Z,21.48
2022-12-13T22:12:01.019Z,22.30
2022-12-13T22:14:27.944Z,26.02
2022-12-13T22:16:54.495Z,25.02
2022-12-13T22:19:20.968Z,21.00
2022-12-13T22:21:47.540Z,23.67
2022-12-13T22:24:14.038Z,85.28
2022-12-13T22:26:41.008Z,100.78
2022-12-13T22:29:11.908Z,73.70
2022-12-13T22:31:38.979Z,97.63
2022-12-13T22:34:05.530Z,41.78
2022-12-13T22:36:32.077Z,19.35
2022-12-13T22:38:58.843Z,22.73
2022-12-13T22:41:25.334Z,20.40
2022-12-13T22:43:51.778Z,39.40
2022-12-13T22:46:22.429Z,34.13
2022-12-13T22:48:51.674Z,20.55
2022-12-13T22:51:19.270Z,16.33
2022-12-13T22:53:47.723Z,19.92
2022-12-13T22:56:19.883Z,24.67
2022-12-13T22:58:46.926Z,18.42
2022-12-13T23:01:22.776Z,21.70
2022-12-13T23:03:49.482Z,17.33
2022-12-13T23:06:22.214Z,16.30
2022-12-13T23:08:54.862Z,17.70
2022-12-13T23:11:40.733Z,16.00
2022-12-13T23:14:09.211Z,21.15
2022-12-13T23:16:36.092Z,14.93
2022-12-13T23:19:39.726Z,14.75
2022-12-13T23:21:54.303Z,14.65
2022-12-13T23:24:20.798Z,16.60
2022-12-13T23:26:47.320Z,13.73
2022-12-13T23:29:13.931Z,14.18
2022-12-13T23:31:42.715Z,14.18
2022-12-13T23:34:15.719Z,15.07
2022-12-13T23:36:42.489Z,13.98
2022-12-13T23:39:11.066Z,14.65
2022-12-13T23:41:37.615Z,15.40
2022-12-13T23:44:04.392Z,14.07
2022-12-13T23:46:33.403Z,16.42
2022-12-13T23:49:01.182Z,15.82
2022-12-13T23:51:28.492Z,15.05
2022-12-13T23:53:55.574Z,14.77
2022-12-13T23:56:23.548Z,14.38
2022-12-13T23:58:50.823Z,14.23
